createdAt,value
2022-12-23T00:01:45.633Z,31.70
2022-12-23T04:07:58.663Z,9.77
2022-12-23T04:10:25.049Z,9.21
2022-12-23T04:12:51.427Z,8.83
2022-12-23T04:15:17.829Z,8.80
2022-12-23T04:17:44.212Z,9.22
2022-12-23T04:20:10.632Z,8.84
2022-12-23T04:22:37.017Z,8.48
2022-12-23T04:25:03.430Z,8.56
2022-12-23T04:27:29.821Z,8.25
2022-12-23T04:29:56.214Z,8.36
2022-12-23T04:32:22.613Z,8.33
2022-12-23T04:34:48.998Z,8.44
2022-12-23T04:37:15.380Z,7.86
2022-12-23T04:39:41.771Z,8.02
2022-12-23T04:42:08.181Z,7.64
2022-12-23T04:44:34.617Z,7.64
2022-12-23T04:47:01.020Z,7.99
2022-12-23T04:49:27.429Z,7.40
2022-12-23T04:51:53.822Z,7.83
2022-12-23T04:54:20.193Z,7.79
2022-12-23T04:56:46.667Z,7.51
2022-12-23T04:59:13.048Z,7.19
2022-12-23T05:01:39.526Z,7.09
2022-12-23T05:04:06.095Z,7.11
2022-12-23T05:06:32.471Z,7.27
2022-12-23T05:08:58.855Z,6.86
2022-12-23T05:11:25.238Z,7.02
2022-12-23T05:13:51.654Z,6.85
2022-12-23T05:16:18.148Z,6.62
2022-12-23T05:18:44.546Z,6.63
2022-12-23T05:21:10.946Z,6.37
2022-12-23T05:23:37.322Z,6.16
2022-12-23T05:26:03.707Z,6.38
2022-12-23T05:28:30.099Z,6.33
2022-12-23T05:30:56.477Z,6.31
2022-12-23T05:33:22.889Z,6.30
2022-12-23T05:35:49.311Z,5.97
2022-12-23T05:38:15.688Z,6.16
2022-12-23T05:40:42.072Z,5.76
2022-12-23T05:43:08.548Z,6.16
2022-12-23T05:45:34.985Z,6.22
2022-12-23T05:48:01.404Z,5.99
2022-12-23T05:50:27.779Z,5.84
2022-12-23T05:52:54.180Z,5.88
2022-12-23T05:55:20.571Z,5.91
2022-12-23T05:57:46.968Z,5.67
2022-12-23T06:00:13.979Z,5.56
2022-12-23T06:02:40.512Z,5.60
2022-12-23T06:05:07.039Z,5.67
2022-12-23T06:07:33.436Z,5.70
2022-12-23T06:09:59.821Z,5.39
2022-12-23T06:12:26.189Z,5.38
2022-12-23T06:14:52.583Z,5.30
2022-12-23T06:17:18.962Z,5.28
2022-12-23T06:19:45.337Z,5.14
2022-12-23T06:22:11.714Z,5.16
2022-12-23T06:24:38.082Z,4.99
2022-12-23T06:27:04.447Z,4.98
2022-12-23T06:29:30.830Z,4.96
2022-12-23T06:31:57.353Z,4.63
2022-12-23T06:34:23.763Z,4.79
2022-12-23T06:36:50.131Z,4.81
2022-12-23T06:39:16.508Z,4.86
2022-12-23T06:41:42.901Z,4.77
2022-12-23T06:44:09.313Z,4.44
2022-12-23T06:46:35.705Z,4.29
2022-12-23T06:49:04.917Z,4.50
2022-12-23T06:51:33.967Z,4.44
2022-12-23T06:54:00.362Z,4.32
2022-12-23T06:56:26.737Z,4.24
2022-12-23T06:58:53.123Z,4.40
2022-12-23T07:01:19.575Z,4.27
2022-12-23T07:03:46.002Z,3.83
2022-12-23T07:06:12.406Z,3.62
2022-12-23T07:08:38.784Z,3.39
2022-12-23T07:11:05.160Z,3.60
2022-12-23T07:13:31.545Z,3.52
2022-12-23T07:15:57.934Z,3.50
2022-12-23T07:18:24.311Z,3.58
2022-12-23T07:20:50.703Z,3.37
2022-12-23T07:23:17.185Z,3.53
2022-12-23T07:25:43.570Z,3.35
2022-12-23T07:28:09.955Z,3.40
2022-12-23T07:30:36.370Z,3.63
2022-12-23T07:33:02.793Z,3.53
2022-12-23T07:35:29.180Z,3.49
2022-12-23T07:37:55.552Z,3.64
2022-12-23T07:40:21.940Z,3.58
2022-12-23T07:42:48.318Z,3.45
2022-12-23T07:45:14.709Z,3.11
2022-12-23T07:47:41.088Z,3.38
2022-12-23T07:50:07.474Z,3.39
2022-12-23T07:52:33.883Z,3.28
2022-12-23T07:55:00.261Z,3.37
2022-12-23T07:57:26.622Z,3.44
2022-12-23T07:59:53.000Z,3.16
2022-12-23T08:02:19.645Z,3.32
2022-12-23T08:04:46.615Z,3.33
2022-12-23T08:07:13.154Z,3.04
2022-12-23T08:09:39.616Z,3.27
2022-12-23T08:12:05.985Z,3.42
2022-12-23T08:14:32.361Z,2.96
2022-12-23T08:16:58.794Z,3.29
2022-12-23T08:19:25.179Z,3.05
2022-12-23T08:21:51.567Z,2.92
2022-12-23T08:24:17.944Z,3.03
2022-12-23T08:26:44.309Z,3.14
2022-12-23T08:29:10.681Z,3.10
2022-12-23T08:31:37.066Z,2.74
2022-12-23T08:34:03.439Z,3.01
2022-12-23T08:36:29.825Z,3.21
2022-12-23T08:38:56.196Z,3.19
2022-12-23T08:41:22.590Z,3.11
2022-12-23T08:43:49.007Z,3.06
2022-12-23T08:46:15.447Z,3.13
2022-12-23T08:48:48.621Z,3.35
2022-12-23T08:51:15.705Z,3.07
2022-12-23T08:53:42.082Z,3.24
2022-12-23T08:56:08.469Z,3.02
2022-12-23T08:58:34.892Z,2.98
2022-12-23T09:01:01.311Z,3.33
2022-12-23T09:03:27.830Z,3.29
2022-12-23T09:05:54.310Z,3.39
2022-12-23T09:08:20.705Z,3.06
2022-12-23T09:10:47.079Z,3.26
2022-12-23T09:13:19.938Z,3.49
2022-12-23T09:15:51.542Z,3.19
2022-12-23T09:18:17.974Z,3.22
2022-12-23T09:20:44.376Z,3.30
2022-12-23T09:23:10.751Z,3.51
2022-12-23T09:25:37.146Z,3.40
2022-12-23T09:28:03.541Z,3.20
2022-12-23T09:30:29.936Z,3.60
2022-12-23T09:32:56.310Z,3.30
2022-12-23T09:35:22.721Z,3.66
2022-12-23T09:37:49.110Z,3.53
2022-12-23T09:40:15.502Z,3.66
2022-12-23T09:42:41.897Z,3.75
2022-12-23T09:45:08.366Z,3.70
2022-12-23T09:47:34.752Z,3.80
2022-12-23T09:50:01.132Z,4.10
2022-12-23T09:52:27.557Z,3.97
2022-12-23T09:54:53.942Z,4.15
2022-12-23T09:57:20.317Z,4.44
2022-12-23T09:59:46.701Z,4.42
2022-12-23T10:02:13.125Z,4.49
2022-12-23T10:04:39.624Z,4.80
2022-12-23T10:07:06.008Z,4.56
2022-12-23T10:09:32.394Z,4.93
2022-12-23T10:11:58.775Z,4.75
2022-12-23T10:14:25.148Z,5.27
2022-12-23T10:16:51.519Z,5.20
2022-12-23T10:19:17.931Z,5.45
2022-12-23T10:21:47.586Z,5.86
2022-12-23T10:24:14.419Z,5.87
2022-12-23T10:26:40.812Z,6.47
2022-12-23T10:29:07.179Z,6.55
2022-12-23T10:31:41.490Z,6.46
2022-12-23T10:34:08.002Z,6.57
2022-12-23T10:36:34.435Z,6.71
2022-12-23T10:39:00.863Z,6.56
2022-12-23T10:41:27.251Z,6.69
2022-12-23T10:43:53.615Z,6.77
2022-12-23T10:46:20.046Z,7.34
2022-12-23T10:48:46.456Z,7.31
2022-12-23T10:51:12.822Z,7.22
2022-12-23T10:53:39.221Z,8.45
2022-12-23T10:56:05.631Z,8.95
2022-12-23T10:58:32.021Z,9.84
2022-12-23T11:00:58.431Z,10.97
2022-12-23T11:03:24.974Z,12.38
2022-12-23T11:05:51.514Z,13.70
2022-12-23T11:08:17.933Z,15.22
2022-12-23T11:10:44.343Z,16.60
2022-12-23T11:13:10.826Z,18.73
2022-12-23T11:15:37.221Z,20.08
2022-12-23T11:18:03.646Z,22.40
2022-12-23T11:20:30.089Z,24.09
2022-12-23T11:22:56.524Z,25.74
2022-12-23T11:25:22.934Z,27.51
2022-12-23T11:27:49.340Z,29.72
2022-12-23T11:30:15.752Z,31.04
2022-12-23T11:32:42.138Z,32.09
2022-12-23T11:35:08.633Z,33.50
2022-12-23T11:37:35.062Z,34.58
2022-12-23T11:40:01.474Z,35.99
2022-12-23T11:42:27.931Z,36.71
2022-12-23T11:44:54.334Z,38.96
2022-12-23T11:47:20.756Z,39.39
2022-12-23T11:49:47.165Z,41.32
2022-12-23T11:52:14.482Z,42.75
2022-12-23T11:54:40.865Z,43.79
2022-12-23T11:57:07.804Z,43.88
2022-12-23T11:59:34.255Z,45.59
2022-12-23T12:02:00.737Z,45.32
2022-12-23T12:04:27.215Z,46.57
2022-12-23T12:06:56.597Z,46.66
2022-12-23T12:09:23.279Z,46.54
2022-12-23T12:11:49.669Z,46.90
2022-12-23T12:14:16.066Z,48.13
2022-12-23T12:16:42.520Z,48.90
2022-12-23T12:19:08.929Z,48.84
2022-12-23T12:21:35.350Z,48.50
2022-12-23T12:24:18.391Z,48.02
2022-12-23T12:26:45.822Z,46.78
2022-12-23T12:29:12.198Z,47.71
2022-12-23T12:31:38.609Z,47.20
2022-12-23T12:34:05.000Z,46.95
2022-12-23T12:36:31.420Z,47.66
2022-12-23T12:38:57.879Z,47.40
2022-12-23T12:41:24.296Z,46.79
2022-12-23T12:43:50.674Z,46.45
2022-12-23T12:46:17.219Z,45.65
2022-12-23T12:48:43.643Z,44.70
2022-12-23T12:51:10.077Z,44.25
2022-12-23T12:53:36.512Z,43.77
2022-12-23T12:56:02.907Z,42.17
2022-12-23T12:58:29.356Z,42.01
2022-12-23T13:00:55.774Z,41.52
2022-12-23T13:03:22.213Z,40.24
2022-12-23T13:05:53.732Z,39.93
2022-12-23T13:08:20.893Z,38.22
2022-12-23T13:10:47.268Z,37.44
2022-12-23T13:13:14.445Z,37.40
2022-12-23T13:15:40.913Z,36.78
2022-12-23T13:18:07.740Z,36.01
2022-12-23T13:20:34.143Z,35.60
2022-12-23T13:23:20.835Z,34.50
2022-12-23T13:25:46.916Z,33.18
2022-12-23T13:28:13.291Z,31.93
2022-12-23T13:30:39.712Z,31.66
2022-12-23T13:33:06.173Z,30.97
2022-12-23T13:35:32.575Z,30.88
2022-12-23T13:37:58.977Z,29.44
2022-12-23T13:40:25.353Z,28.61
2022-12-23T13:42:51.738Z,29.51
2022-12-23T13:45:18.187Z,27.70
2022-12-23T13:47:44.590Z,27.17
2022-12-23T13:50:10.977Z,27.01
2022-12-23T13:52:37.370Z,26.70
2022-12-23T13:55:03.765Z,26.24
2022-12-23T13:57:30.177Z,25.28
2022-12-23T14:00:03.006Z,24.59
2022-12-23T14:02:31.660Z,24.37
2022-12-23T14:04:58.110Z,24.06
2022-12-23T14:07:24.520Z,22.90
2022-12-23T14:09:50.916Z,21.59
2022-12-23T14:12:17.317Z,21.41
2022-12-23T14:14:43.711Z,21.16
2022-12-23T14:17:10.091Z,20.21
2022-12-23T14:19:36.498Z,19.62
2022-12-23T14:22:02.891Z,20.40
2022-12-23T14:24:29.292Z,19.56
2022-12-23T14:26:55.680Z,19.32
2022-12-23T14:29:22.086Z,18.68
2022-12-23T14:31:48.567Z,18.22
2022-12-23T14:34:15.005Z,17.72
2022-12-23T14:36:41.482Z,16.80
2022-12-23T14:39:07.944Z,17.56
2022-12-23T14:41:34.330Z,16.86
2022-12-23T14:44:00.710Z,16.11
2022-12-23T14:46:27.180Z,16.00
2022-12-23T14:49:09.901Z,16.02
2022-12-23T14:51:40.041Z,15.72
2022-12-23T14:54:06.446Z,14.83
2022-12-23T14:56:32.843Z,15.61
2022-12-23T14:58:59.255Z,14.68
2022-12-23T15:01:25.663Z,14.82
2022-12-23T15:03:57.554Z,13.67
2022-12-23T15:06:27.269Z,13.70
2022-12-23T15:08:53.671Z,13.07
2022-12-23T15:11:20.079Z,12.81
2022-12-23T15:13:46.483Z,13.09
2022-12-23T15:16:12.975Z,12.72
2022-12-23T15:18:39.385Z,12.48
2022-12-23T15:21:05.873Z,12.87
2022-12-23T15:23:32.261Z,11.94
2022-12-23T15:25:58.667Z,12.24
2022-12-23T15:28:25.068Z,12.24
2022-12-23T15:30:51.489Z,12.24
2022-12-23T15:33:51.893Z,11.84
2022-12-23T15:36:05.370Z,11.74
2022-12-23T15:38:31.777Z,11.56
2022-12-23T15:40:58.151Z,10.71
2022-12-23T15:43:24.521Z,11.23
2022-12-23T15:45:50.923Z,10.69
2022-12-23T15:48:17.318Z,10.38
2022-12-23T15:50:43.722Z,10.23
2022-12-23T15:53:10.120Z,10.28
2022-12-23T15:55:36.518Z,9.44
2022-12-23T15:58:02.970Z,9.64
2022-12-23T16:00:29.361Z,9.33
2022-12-23T16:03:01.019Z,9.79
2022-12-23T16:05:28.407Z,9.38
2022-12-23T16:07:54.806Z,9.36
2022-12-23T16:10:21.227Z,9.02
2022-12-23T16:12:47.621Z,9.20
2022-12-23T16:15:14.015Z,9.13
2022-12-23T16:17:40.421Z,9.13
2022-12-23T16:20:06.798Z,8.77
2022-12-23T16:22:33.173Z,8.71
2022-12-23T16:24:59.548Z,8.64
2022-12-23T16:27:25.935Z,8.84
2022-12-23T16:29:52.337Z,8.80
2022-12-23T16:32:19.209Z,8.61
2022-12-23T16:34:45.691Z,8.39
2022-12-23T16:37:12.097Z,8.44
2022-12-23T16:39:38.491Z,8.47
2022-12-23T16:42:04.883Z,8.69
2022-12-23T16:44:31.283Z,8.64
2022-12-23T16:46:57.680Z,8.76
2022-12-23T16:49:29.519Z,8.59
2022-12-23T16:51:57.728Z,9.09
2022-12-23T16:54:24.092Z,8.58
2022-12-23T16:56:50.466Z,9.19
2022-12-23T16:59:16.876Z,8.30
2022-12-23T17:01:43.407Z,8.65
2022-12-23T17:04:09.901Z,9.28
2022-12-23T17:06:36.281Z,9.42
2022-12-23T17:09:02.685Z,9.95
2022-12-23T17:11:29.084Z,10.60
2022-12-23T17:13:59.730Z,11.17
2022-12-23T17:16:30.477Z,10.82
2022-12-23T17:18:56.900Z,12.18
2022-12-23T17:21:23.290Z,12.57
2022-12-23T17:23:49.690Z,13.10
2022-12-23T17:26:16.069Z,12.99
2022-12-23T17:28:42.450Z,13.62
2022-12-23T17:31:14.392Z,13.95
2022-12-23T17:33:41.852Z,14.22
2022-12-23T17:36:08.296Z,14.59
2022-12-23T17:38:34.733Z,16.00
2022-12-23T17:41:01.114Z,16.91
2022-12-23T17:43:27.520Z,18.18
2022-12-23T17:45:53.963Z,20.31
2022-12-23T17:48:24.163Z,20.62
2022-12-23T17:50:53.036Z,21.96
2022-12-23T17:53:19.470Z,23.48
2022-12-23T17:55:45.884Z,23.66
2022-12-23T17:58:12.298Z,24.95
2022-12-23T18:00:38.706Z,25.11
2022-12-23T18:03:05.104Z,26.61
2022-12-23T18:05:31.523Z,27.51
2022-12-23T18:07:57.924Z,27.59
2022-12-23T18:10:24.322Z,28.19
2022-12-23T18:12:50.725Z,28.97
2022-12-23T18:15:17.110Z,29.23
2022-12-23T18:17:43.514Z,30.31
2022-12-23T18:20:09.920Z,31.51
2022-12-23T18:22:36.337Z,31.75
2022-12-23T18:25:02.781Z,32.28
2022-12-23T18:27:29.156Z,32.64
2022-12-23T18:29:55.656Z,33.07
2022-12-23T18:32:22.050Z,34.67
2022-12-23T18:34:48.429Z,34.75
2022-12-23T18:37:14.835Z,36.09
2022-12-23T18:39:41.313Z,35.99
2022-12-23T18:42:08.173Z,36.93
2022-12-23T18:44:34.567Z,42.77
2022-12-23T18:47:01.048Z,42.96
2022-12-23T18:49:27.484Z,42.46
2022-12-23T18:51:53.886Z,42.74
2022-12-23T18:54:20.273Z,41.94
2022-12-23T18:56:46.672Z,41.28
2022-12-23T18:59:13.068Z,41.24
2022-12-23T19:01:39.502Z,41.97
2022-12-23T19:04:05.934Z,41.28
2022-12-23T19:06:32.331Z,41.59
2022-12-23T19:08:58.817Z,41.90
2022-12-23T19:11:25.197Z,41.77
2022-12-23T19:13:51.588Z,41.29
2022-12-23T19:16:18.052Z,42.55
2022-12-23T19:18:44.537Z,41.96
2022-12-23T19:21:10.931Z,42.46
2022-12-23T19:23:37.341Z,42.56
2022-12-23T19:26:03.758Z,43.11
2022-12-23T19:28:30.163Z,43.35
2022-12-23T19:30:56.595Z,43.86
2022-12-23T19:33:23.004Z,43.99
2022-12-23T19:35:49.497Z,44.47
2022-12-23T19:38:15.913Z,44.01
2022-12-23T19:40:42.305Z,45.91
2022-12-23T19:43:08.706Z,45.57
2022-12-23T19:45:35.101Z,46.58
2022-12-23T19:48:01.503Z,46.66
2022-12-23T19:50:27.919Z,47.44
2022-12-23T19:52:54.318Z,48.85
2022-12-23T19:55:20.767Z,48.27
2022-12-23T19:57:47.169Z,48.78
2022-12-23T20:00:13.578Z,48.70
2022-12-23T20:02:40.017Z,49.63
2022-12-23T20:05:06.424Z,50.20
2022-12-23T20:07:32.818Z,48.79
2022-12-23T20:09:59.227Z,50.22
2022-12-23T20:12:25.638Z,50.65
2022-12-23T20:14:52.039Z,51.81
2022-12-23T20:17:18.433Z,51.79
2022-12-23T20:19:46.388Z,52.32
2022-12-23T20:22:12.987Z,54.17
2022-12-23T20:24:39.405Z,55.41
2022-12-23T20:27:10.945Z,54.62
2022-12-23T20:29:38.428Z,54.97
2022-12-23T20:32:04.851Z,55.43
2022-12-23T20:34:36.724Z,56.00
2022-12-23T20:37:05.873Z,56.18
2022-12-23T20:39:32.301Z,56.93
2022-12-23T20:41:58.694Z,54.48
2022-12-23T20:44:34.452Z,55.98
2022-12-23T20:47:01.923Z,54.37
2022-12-23T20:49:28.420Z,55.57
2022-12-23T20:51:54.853Z,54.86
2022-12-23T20:54:23.809Z,53.98
2022-12-23T20:56:54.468Z,53.11
2022-12-23T20:59:20.865Z,52.06
2022-12-23T21:01:47.293Z,52.06
2022-12-23T21:04:13.697Z,51.70
2022-12-23T21:06:40.117Z,51.43
2022-12-23T21:09:06.506Z,50.87
2022-12-23T21:11:32.890Z,50.85
2022-12-23T21:14:05.631Z,49.76
2022-12-23T21:16:33.062Z,49.40
2022-12-23T21:18:59.474Z,48.56
2022-12-23T21:21:25.846Z,48.69
2022-12-23T21:23:52.243Z,48.41
2022-12-23T21:26:18.648Z,46.60
2022-12-23T21:28:45.070Z,46.74
2022-12-23T21:31:11.539Z,46.42
2022-12-23T21:33:37.966Z,45.39
2022-12-23T21:36:04.405Z,45.49
2022-12-23T21:38:30.794Z,45.49
2022-12-23T21:40:57.210Z,44.61
2022-12-23T21:43:23.612Z,43.23
2022-12-23T21:45:50.006Z,43.61
2022-12-23T21:48:16.398Z,43.11
2022-12-23T21:50:42.807Z,42.38
2022-12-23T21:53:09.200Z,41.59
2022-12-23T21:55:35.581Z,40.65
2022-12-23T21:58:01.990Z,41.37
2022-12-23T22:00:28.378Z,40.75
2022-12-23T22:02:54.785Z,40.64
2022-12-23T22:05:21.164Z,40.34
2022-12-23T22:07:47.541Z,39.47
2022-12-23T22:10:13.925Z,38.53
2022-12-23T22:12:40.321Z,39.55
2022-12-23T22:15:11.444Z,39.32
2022-12-23T22:17:38.324Z,37.86
2022-12-23T22:20:04.758Z,37.39
2022-12-23T22:22:31.141Z,37.32
2022-12-23T22:24:57.525Z,36.89
2022-12-23T22:27:23.968Z,38.26
2022-12-23T22:29:50.365Z,36.23
2022-12-23T22:32:16.757Z,36.65
2022-12-23T22:34:43.147Z,36.37
2022-12-23T22:37:09.558Z,35.75
2022-12-23T22:39:35.939Z,35.04
2022-12-23T22:42:02.369Z,35.56
2022-12-23T22:44:28.770Z,34.87
2022-12-23T22:46:55.291Z,35.15
2022-12-23T22:49:21.728Z,34.23
2022-12-23T22:51:48.123Z,34.08
2022-12-23T22:54:14.522Z,33.09
2022-12-23T22:56:40.914Z,33.56
2022-12-23T22:59:07.322Z,33.56
2022-12-23T23:01:33.742Z,32.52
2022-12-23T23:04:00.182Z,31.87
2022-12-23T23:06:26.648Z,31.79
2022-12-23T23:08:53.061Z,31.39
2022-12-23T23:11:19.478Z,30.80
2022-12-23T23:13:45.885Z,30.11
2022-12-23T23:16:12.309Z,30.38
2022-12-23T23:18:38.720Z,30.99
2022-12-23T23:21:05.129Z,30.59
2022-12-23T23:23:31.541Z,30.50
2022-12-23T23:25:57.940Z,29.68
2022-12-23T23:28:24.390Z,28.42
2022-12-23T23:31:09.666Z,28.57
2022-12-23T23:33:36.356Z,28.33
2022-12-23T23:36:02.772Z,27.46
2022-12-23T23:38:29.194Z,26.90
2022-12-23T23:40:55.594Z,26.49
2022-12-23T23:43:22.007Z,26.69
2022-12-23T23:45:48.425Z,26.12
2022-12-23T23:48:14.806Z,26.26
2022-12-23T23:50:41.199Z,25.91
2022-12-23T23:53:07.586Z,25.88
2022-12-23T23:55:33.992Z,26.11
2022-12-23T23:58:00.388Z,25.13
